Terminal Aerodrome Forecast
Issued by NWS Wilmington, OH

Current Version | Previous Version | Text Only | Print | Product List | Glossary Off
Versions: 1 2 3 4 5 6 7 8 9 10 11 12 13 14 15 16 17 18 19

000
FTUS41 KILN 201132
TAFDAY
TAF
KDAY 201132Z 2012/2112 20005KT 4SM BR SCT002 BKN070
      TEMPO 2012/2013 1/2SM FG VV002
     FM201400 21006KT P6SM BKN050
     FM201800 24006KT P6SM SCT050
     FM210300 VRB04KT P6SM SKC
     FM210900 VRB03KT 5SM BR SKC=

USA.gov is the U.S. government's official web portal to all federal, state and local government web resources and services.